Time;durP1;ratioP1;P1;durP2;ratioP2;P2;SDS_P1;SDS_P2;PMS_P1;PMS_P2;Temp;Humidity;BMP_temperature;BMP_pressure;BME280_temperature;BME280_humidity;BME280_pressure;Samples;Min_cycle;Max_cycle;Signal;HPM_P1;HPM_P2
2024/03/24 00:00:07;;;;;;;13.20;6.30;;;;;;;3.21;73.21;99301.40;128654;1254;113563;-59
2024/03/24 00:03:37;;;;;;;;;;;;;;;3.13;73.15;99293.73;128638;1254;114868;-60
2024/03/24 00:06:41;;;;;;;9.50;5.70;;;;;;;3.05;73.31;99295.25;128551;1257;113507;-59
2024/03/24 00:09:45;;;;;;;13.00;5.60;;;;;;;2.98;73.34;99289.85;128637;1276;128757;-58
2024/03/24 00:12:50;;;;;;;10.50;6.10;;;;;;;2.90;73.58;99285.52;128779;1256;114713;-59
2024/03/24 00:16:03;;;;;;;9.80;5.40;;;;;;;2.84;73.75;99279.02;128585;1256;113527;-59
2024/03/24 00:19:09;;;;;;;7.80;4.20;;;;;;;2.80;73.89;99271.23;128710;1256;113526;-59
2024/03/24 00:22:14;;;;;;;7.20;4.10;;;;;;;2.77;74.22;99269.75;128391;1257;113866;-59
2024/03/24 00:25:23;;;;;;;7.90;4.80;;;;;;;2.74;74.21;99270.40;128284;1263;127814;-59
2024/03/24 00:28:31;;;;;;;7.20;5.20;;;;;;;2.70;74.21;99267.70;128255;1262;114694;-59
2024/03/24 00:31:39;;;;;;;10.90;4.50;;;;;;;2.67;74.20;99264.45;128691;1254;113447;-59
2024/03/24 00:34:46;;;;;;;9.20;4.50;;;;;;;2.64;74.38;99265.98;128533;1254;113517;-59
2024/03/24 00:37:53;;;;;;;9.80;4.50;;;;;;;2.60;74.74;99258.86;128749;1256;113461;-59
2024/03/24 00:40:59;;;;;;;8.50;4.90;;;;;;;2.57;74.87;99253.33;128661;1254;128929;-59
2024/03/24 00:44:05;;;;;;;10.20;4.40;;;;;;;2.56;74.94;99252.33;128616;1256;114710;-60
2024/03/24 00:47:10;;;;;;;7.20;3.90;;;;;;;2.56;75.10;99248.22;128433;1254;113631;-59
2024/03/24 00:50:16;;;;;;;7.00;4.20;;;;;;;2.58;75.28;99245.52;128716;1256;113982;-60
2024/03/24 00:53:26;;;;;;;11.30;5.10;;;;;;;2.61;75.42;99240.32;128626;1256;113493;-60
2024/03/24 00:56:33;;;;;;;9.60;5.20;;;;;;;2.64;75.57;99239.88;128563;1276;128805;-59
2024/03/24 00:59:43;;;;;;;9.10;4.90;;;;;;;2.68;75.64;99235.33;128595;1256;114034;-60
2024/03/24 01:02:50;;;;;;;10.70;4.40;;;;;;;2.70;75.78;99227.14;128551;1254;113426;-60
2024/03/24 01:06:00;;;;;;;10.20;5.60;;;;;;;2.73;75.87;99227.91;128754;1254;113460;-60
2024/03/24 01:09:07;;;;;;;9.40;5.70;;;;;;;2.78;75.97;99225.13;128616;1256;113485;-60
2024/03/24 01:12:12;;;;;;;10.10;5.50;;;;;;;2.83;76.17;99221.92;128634;1276;128698;-60
2024/03/24 01:15:16;;;;;;;14.40;6.20;;;;;;;2.89;76.25;99219.27;128696;1259;114802;-58
2024/03/24 01:18:22;;;;;;;11.20;6.00;;;;;;;2.94;76.34;99213.62;128689;1254;113471;-58
2024/03/24 01:21:33;;;;;;;12.50;5.10;;;;;;;2.99;76.24;99209.55;128690;1256;113583;-58
2024/03/24 01:24:42;;;;;;;12.00;5.90;;;;;;;3.02;76.23;99206.63;128686;1256;113532;-59
2024/03/24 01:27:51;;;;;;;10.40;5.60;;;;;;;3.02;76.17;99208.55;128331;1254;128711;-59
2024/03/24 01:31:02;;;;;;;9.80;5.70;;;;;;;3.01;75.93;99205.94;129246;1257;115488;-60
2024/03/24 01:34:09;;;;;;;11.40;5.70;;;;;;;2.99;75.94;99201.61;128708;1257;113527;-61
2024/03/24 01:37:12;;;;;;;9.60;5.50;;;;;;;2.95;75.99;99200.34;128691;1254;113547;-60
2024/03/24 01:40:21;;;;;;;11.40;5.30;;;;;;;2.90;75.77;99200.52;128677;1254;113594;-60
2024/03/24 01:43:29;;;;;;;9.60;5.50;;;;;;;2.84;75.70;99204.09;128184;1276;127774;-60
2024/03/24 01:46:34;;;;;;;9.80;4.80;;;;;;;2.78;75.59;99203.44;128614;1253;114727;-60
2024/03/24 01:49:43;;;;;;;11.70;6.20;;;;;;;2.69;75.66;99195.98;128638;1254;113539;-60
2024/03/24 01:52:55;;;;;;;10.70;5.30;;;;;;;2.61;75.46;99196.80;128693;1256;113533;-60
2024/03/24 01:56:00;;;;;;;11.20;5.70;;;;;;;2.54;75.53;99200.21;128686;1254;113507;-60
2024/03/24 01:59:07;;;;;;;12.40;5.80;;;;;;;2.46;75.60;99197.67;128535;1276;128678;-60
2024/03/24 02:02:17;;;;;;;11.60;5.40;;;;;;;2.38;75.72;99198.26;128731;1256;114745;-58
2024/03/24 02:05:29;;;;;;;11.40;6.20;;;;;;;2.31;75.51;99196.57;128654;1254;113543;-58
2024/03/24 02:08:35;;;;;;;8.30;4.80;;;;;;;2.24;75.64;99200.33;128522;1254;113618;-58
2024/03/24 02:11:43;;;;;;;11.10;5.30;;;;;;;2.18;75.64;99205.44;128616;1256;113532;-59
2024/03/24 02:14:52;;;;;;;8.60;4.70;;;;;;;2.11;75.85;99204.27;128458;1276;128550;-59
2024/03/24 02:18:02;;;;;;;9.70;4.90;;;;;;;2.05;76.05;99207.65;128279;1262;115331;-59
2024/03/24 02:21:10;;;;;;;10.90;4.90;;;;;;;1.99;76.18;99209.23;128680;1259;113577;-59
2024/03/24 02:24:19;;;;;;;10.40;5.60;;;;;;;1.94;76.21;99210.98;128550;1252;113484;-59
2024/03/24 02:27:28;;;;;;;11.00;4.60;;;;;;;1.91;76.09;99211.23;128733;1257;113497;-59
2024/03/24 02:30:36;;;;;;;7.50;4.70;;;;;;;1.87;76.58;99203.26;128605;1276;128865;-59
2024/03/24 02:33:43;;;;;;;11.20;5.20;;;;;;;1.84;76.51;99207.25;128098;1263;114735;-59
2024/03/24 02:36:55;;;;;;;9.30;5.20;;;;;;;1.80;76.33;99204.73;128766;1258;113535;-59
2024/03/24 02:40:01;;;;;;;9.20;5.10;;;;;;;1.77;76.49;99206.40;128545;1262;113651;-59
2024/03/24 02:43:08;;;;;;;9.50;4.50;;;;;;;1.75;76.65;99206.83;128526;1257;113459;-59
2024/03/24 02:46:16;;;;;;;8.60;4.50;;;;;;;1.72;76.67;99202.87;128557;1258;127503;-60
2024/03/24 02:49:21;;;;;;;;;;;;;;;1.69;76.79;99203.83;128384;1263;114822;-60
2024/03/24 02:52:26;;;;;;;7.40;4.80;;;;;;;1.66;76.97;99198.30;128503;1260;113648;-59
2024/03/24 02:55:32;;;;;;;9.40;4.40;;;;;;;1.64;77.16;99194.66;128438;1254;113542;-59
2024/03/24 02:58:42;;;;;;;8.10;4.70;;;;;;;1.62;77.18;99196.46;128439;1260;113643;-58
2024/03/24 03:01:46;;;;;;;8.30;4.70;;;;;;;1.61;77.31;99194.74;128574;1276;128965;-59
2024/03/24 03:04:54;;;;;;;7.10;4.00;;;;;;;1.60;77.49;99199.16;128870;1264;114793;-60
2024/03/24 03:08:02;;;;;;;8.70;5.50;;;;;;;1.59;77.32;99202.20;128620;1254;113594;-59
2024/03/24 03:11:09;;;;;;;10.80;5.10;;;;;;;1.58;77.55;99201.20;128490;1262;113610;-60
2024/03/24 03:14:18;;;;;;;8.80;4.70;;;;;;;1.56;77.56;99200.02;128509;1257;113620;-59
2024/03/24 03:17:30;;;;;;;7.90;4.80;;;;;;;1.53;77.62;99199.91;128584;1276;128544;-60
2024/03/24 03:20:36;;;;;;;8.00;4.60;;;;;;;1.51;77.75;99199.27;128720;1257;114845;-60
2024/03/24 03:23:42;;;;;;;8.00;5.20;;;;;;;1.49;77.86;99197.92;128623;1257;113570;-59
2024/03/24 03:26:47;;;;;;;11.80;5.10;;;;;;;1.47;77.78;99193.08;128530;1254;114687;-59
2024/03/24 03:29:52;;;;;;;9.90;5.50;;;;;;;1.45;78.00;99196.45;128582;1257;113631;-59
2024/03/24 03:33:06;;;;;;;9.20;4.60;;;;;;;1.44;78.00;99191.40;128482;1257;128826;-60
2024/03/24 03:36:14;;;;;;;8.60;4.90;;;;;;;1.41;78.14;99187.26;128530;1262;114880;-60
2024/03/24 03:39:22;;;;;;;8.90;5.20;;;;;;;1.39;77.84;99186.09;128449;1255;113642;-60
2024/03/24 03:42:31;;;;;;;13.40;5.50;;;;;;;1.36;78.01;99186.00;128711;1257;113494;-59
2024/03/24 03:45:40;;;;;;;10.10;6.00;;;;;;;1.32;78.13;99182.94;128406;1257;113642;-60
2024/03/24 03:48:48;;;;;;;10.40;4.90;;;;;;;1.30;77.95;99187.95;128624;1264;128761;-59
2024/03/24 03:51:56;;;;;;;6.90;3.90;;;;;;;1.27;78.02;99186.60;128678;1257;114761;-58
2024/03/24 03:55:11;;;;;;;9.10;4.30;;;;;;;1.25;77.99;99182.47;128663;1256;113472;-58
2024/03/24 03:58:17;;;;;;;11.20;4.90;;;;;;;1.21;78.17;99186.26;128386;1256;114335;-60
2024/03/24 04:01:23;;;;;;;9.90;4.80;;;;;;;1.18;77.89;99192.49;128706;1272;113462;-59
2024/03/24 04:04:31;;;;;;;11.30;4.60;;;;;;;1.15;77.75;99192.59;128489;1273;128716;-59
2024/03/24 04:07:37;;;;;;;11.20;5.90;;;;;;;1.11;77.75;99191.14;128614;1260;114715;-60
2024/03/24 04:10:45;;;;;;;8.50;5.00;;;;;;;1.07;77.68;99188.42;128206;1254;113648;-60
2024/03/24 04:13:54;;;;;;;9.60;5.50;;;;;;;1.06;77.96;99188.63;128609;1257;114767;-60
2024/03/24 04:17:02;;;;;;;8.50;4.80;;;;;;;1.07;78.40;99187.02;128544;1257;113541;-60
2024/03/24 04:20:11;;;;;;;7.80;4.90;;;;;;;1.10;78.41;99183.60;128532;1275;127882;-59
2024/03/24 04:23:17;;;;;;;8.60;4.50;;;;;;;1.12;78.47;99182.65;128607;1260;114744;-60
2024/03/24 04:26:27;;;;;;;11.30;5.50;;;;;;;1.15;78.60;99182.05;128500;1254;113734;-58
2024/03/24 04:29:34;;;;;;;9.50;4.50;;;;;;;1.19;79.20;99184.56;128192;1257;113651;-59
2024/03/24 04:32:40;;;;;;;10.60;5.40;;;;;;;1.25;79.18;99182.98;128550;1256;113577;-59
2024/03/24 04:35:44;;;;;;;9.50;5.60;;;;;;;1.32;79.41;99179.23;128477;1275;128784;-59
2024/03/24 04:38:54;;;;;;;8.40;5.50;;;;;;;1.39;79.34;99173.41;128618;1263;114524;-59
2024/03/24 04:42:00;;;;;;;8.50;4.20;;;;;;;1.47;79.59;99173.02;128643;1254;113552;-59
2024/03/24 04:45:11;;;;;;;8.60;4.80;;;;;;;1.54;79.94;99169.08;128581;1257;113500;-59
2024/03/24 04:48:19;;;;;;;8.10;4.70;;;;;;;1.61;79.70;99168.52;128563;1258;113545;-59
2024/03/24 04:51:27;;;;;;;8.20;5.10;;;;;;;1.66;79.28;99170.30;128513;1276;127780;-60
2024/03/24 04:54:34;;;;;;;7.30;4.40;;;;;;;1.70;79.45;99169.14;128648;1257;114707;-60
2024/03/24 04:57:38;;;;;;;8.90;4.10;;;;;;;1.72;79.23;99164.86;128551;1257;113571;-60
2024/03/24 05:00:49;;;;;;;8.20;4.30;;;;;;;1.73;79.07;99166.56;128576;1260;113674;-59
2024/03/24 05:03:54;;;;;;;7.60;5.10;;;;;;;1.74;79.24;99165.98;128470;1254;113826;-60
2024/03/24 05:07:02;;;;;;;8.90;4.10;;;;;;;1.75;78.80;99162.48;128644;1254;128894;-60
2024/03/24 05:10:09;;;;;;;6.70;4.10;;;;;;;1.76;78.96;99166.48;128988;1260;114761;-59
2024/03/24 05:13:15;;;;;;;7.80;4.30;;;;;;;1.78;79.05;99162.70;129299;1254;113458;-60
2024/03/24 05:16:20;;;;;;;9.50;4.90;;;;;;;1.82;79.28;99165.95;129025;1254;113459;-59
2024/03/24 05:19:25;;;;;;;10.20;5.20;;;;;;;1.87;79.33;99166.14;128775;1260;113464;-60
2024/03/24 05:22:32;;;;;;;12.80;6.00;;;;;;;1.92;79.57;99163.69;128970;1254;128753;-60
2024/03/24 05:25:43;;;;;;;9.60;5.10;;;;;;;1.99;79.89;99163.11;128891;1258;114751;-59
2024/03/24 05:28:53;;;;;;;8.00;4.90;;;;;;;2.05;79.88;99163.96;129166;1255;113465;-61
2024/03/24 05:32:02;;;;;;;9.70;4.50;;;;;;;2.12;79.83;99163.38;128903;1255;113515;-61
2024/03/24 05:35:11;;;;;;;8.40;4.20;;;;;;;2.21;80.11;99165.56;128625;1267;113481;-61
2024/03/24 05:38:18;;;;;;;8.80;4.90;;;;;;;2.31;80.34;99168.20;128868;1266;128823;-60
2024/03/24 05:41:29;;;;;;;9.30;4.80;;;;;;;2.44;80.47;99166.19;128545;1262;114793;-61
2024/03/24 05:44:38;;;;;;;10.20;5.20;;;;;;;2.57;80.61;99169.09;128561;1255;113620;-61
2024/03/24 05:47:44;;;;;;;8.60;5.10;;;;;;;2.69;80.66;99172.35;129112;1260;113530;-60
2024/03/24 05:51:04;;;;;;;9.00;5.70;;;;;;;2.84;80.70;99174.48;128324;1255;714845;-61
2024/03/24 05:54:11;;;;;;;7.10;4.60;;;;;;;2.97;80.73;99175.79;128587;1260;129026;-60
2024/03/24 05:57:20;;;;;;;7.20;4.80;;;;;;;3.07;80.60;99174.88;128594;1257;114722;-61
2024/03/24 06:00:28;;;;;;;9.00;4.10;;;;;;;3.18;80.82;99172.88;128627;1258;113489;-60
2024/03/24 06:03:39;;;;;;;9.70;4.60;;;;;;;3.30;80.75;99177.22;128936;1258;113538;-60
2024/03/24 06:06:49;;;;;;;10.10;5.40;;;;;;;3.41;80.73;99173.26;128819;1254;113530;-61
2024/03/24 06:09:55;;;;;;;9.00;6.00;;;;;;;3.53;80.58;99173.15;128550;1276;127737;-60
2024/03/24 06:13:02;;;;;;;12.60;6.60;;;;;;;3.64;80.53;99175.71;128677;1254;114959;-60
2024/03/24 06:16:08;;;;;;;11.90;6.30;;;;;;;3.77;80.43;99177.50;130125;1259;114753;-60
2024/03/24 06:19:13;;;;;;;10.40;6.90;;;;;;;3.88;80.23;99178.84;129110;1254;113354;-61
2024/03/24 06:22:21;;;;;;;9.10;5.50;;;;;;;3.97;80.15;99178.10;129119;1257;113545;-60
2024/03/24 06:25:32;;;;;;;12.30;6.00;;;;;;;4.05;79.79;99180.11;129020;1274;127827;-60
2024/03/24 06:28:37;;;;;;;10.70;7.10;;;;;;;4.11;79.81;99179.48;129097;1254;114684;-61
2024/03/24 06:31:48;;;;;;;11.20;7.00;;;;;;;4.20;79.66;99180.02;128756;1259;113557;-60
2024/03/24 06:35:03;;;;;;;10.50;5.20;;;;;;;4.28;79.72;99180.73;128760;1258;113551;-61
2024/03/24 06:38:14;;;;;;;8.00;5.20;;;;;;;4.38;79.59;99184.22;129070;1254;113633;-60
2024/03/24 06:41:21;;;;;;;8.70;4.20;;;;;;;4.46;79.10;99178.93;128981;1254;128734;-60
2024/03/24 06:44:35;;;;;;;9.40;4.00;;;;;;;4.54;79.12;99182.48;128964;1254;114709;-60
2024/03/24 06:47:45;;;;;;;6.40;4.20;;;;;;;4.64;79.05;99185.95;128756;1263;113723;-59
2024/03/24 06:50:53;;;;;;;8.80;3.60;;;;;;;4.73;79.03;99184.83;129570;1253;113425;-60
2024/03/24 06:54:06;;;;;;;6.10;2.90;;;;;;;4.83;79.15;99183.89;129279;1259;113497;-59
2024/03/24 06:57:16;;;;;;;5.80;4.00;;;;;;;4.95;78.88;99181.07;128672;1271;128760;-60
2024/03/24 07:00:24;;;;;;;6.30;3.80;;;;;;;5.09;78.54;99182.02;128653;1254;114806;-61
2024/03/24 07:03:32;;;;;;;4.90;3.20;;;;;;;5.22;78.57;99186.23;128680;1254;113539;-62
2024/03/24 07:06:46;;;;;;;5.80;2.70;;;;;;;5.38;78.06;99183.70;128668;1254;113528;-60
2024/03/24 07:10:03;;;;;;;6.40;2.80;;;;;;;5.55;77.72;99185.06;128579;1260;113552;-60
2024/03/24 07:13:08;;;;;;;7.40;2.70;;;;;;;5.73;77.64;99184.41;128347;1254;127750;-60
2024/03/24 07:16:16;;;;;;;3.50;2.20;;;;;;;5.88;76.92;99187.42;128735;1257;114739;-60
2024/03/24 07:19:23;;;;;;;4.40;3.00;;;;;;;6.02;76.90;99182.48;128700;1254;113513;-59
2024/03/24 07:22:28;;;;;;;5.60;3.70;;;;;;;6.22;76.87;99178.86;128687;1254;113589;-60
2024/03/24 07:25:32;;;;;;;5.60;3.20;;;;;;;6.45;76.46;99179.88;128710;1254;113557;-61
2024/03/24 07:28:37;;;;;;;7.40;2.90;;;;;;;6.71;76.49;99179.95;128664;1276;128812;-61
2024/03/24 07:31:42;;;;;;;4.10;2.40;;;;;;;7.00;76.06;99169.77;128544;1257;114723;-61
2024/03/24 07:34:47;;;;;;;5.10;3.00;;;;;;;7.27;75.74;99169.91;128803;1254;113524;-60
2024/03/24 07:37:52;;;;;;;4.10;2.20;;;;;;;7.52;74.88;99165.39;128762;1254;113507;-60
2024/03/24 07:41:02;;;;;;;3.60;1.90;;;;;;;7.72;74.69;99166.21;128762;1253;113484;-59
2024/03/24 07:44:10;;;;;;;4.00;2.40;;;;;;;7.91;73.83;99163.16;128399;1263;128223;-61
2024/03/24 07:47:14;;;;;;;5.80;2.80;;;;;;;8.15;73.69;99166.30;128707;1259;114735;-61
2024/03/24 07:50:18;;;;;;;6.00;2.00;;;;;;;8.37;73.12;99160.74;128675;1254;113463;-61
2024/03/24 07:53:28;;;;;;;6.20;2.50;;;;;;;8.58;72.57;99157.38;128315;1253;113740;-61
2024/03/24 07:56:36;;;;;;;4.40;1.90;;;;;;;8.71;71.52;99154.48;128509;1254;113625;-59
2024/03/24 07:59:44;;;;;;;5.10;2.60;;;;;;;8.90;71.33;99149.23;128613;1271;128843;-61
2024/03/24 08:02:51;;;;;;;6.20;3.40;;;;;;;9.32;71.06;99146.98;128583;1256;114809;-60
2024/03/24 08:06:02;;;;;;;2.50;1.70;;;;;;;9.80;70.25;99149.15;128246;1263;113548;-60
2024/03/24 08:09:11;;;;;;;2.90;2.00;;;;;;;10.23;69.44;99143.64;128072;1257;113552;-61
2024/03/24 08:12:20;;;;;;;4.40;2.30;;;;;;;10.64;69.29;99146.66;128384;1261;113705;-62
2024/03/24 08:15:33;;;;;;;4.20;2.50;;;;;;;10.78;67.90;99147.86;128233;1281;128168;-60
2024/03/24 08:18:46;;;;;;;6.10;3.00;;;;;;;10.92;67.29;99150.25;128275;1262;114667;-60
2024/03/24 08:21:56;;;;;;;3.40;2.30;;;;;;;10.97;66.37;99151.35;128432;1258;113651;-60
2024/03/24 08:25:04;;;;;;;5.10;3.40;;;;;;;10.91;65.51;99149.45;128541;1258;113606;-61
2024/03/24 08:28:11;;;;;;;6.00;2.70;;;;;;;10.81;64.60;99148.86;128345;1263;113619;-60
2024/03/24 08:31:16;;;;;;;3.90;2.60;;;;;;;10.64;64.48;99150.75;128111;1262;128338;-60
2024/03/24 08:34:22;;;;;;;3.90;2.40;;;;;;;10.80;64.80;99139.66;128382;1262;114966;-61
2024/03/24 08:37:27;;;;;;;5.80;2.10;;;;;;;10.96;64.34;99139.81;128431;1253;113657;-61
2024/03/24 08:40:36;;;;;;;4.00;2.90;;;;;;;10.92;63.96;99138.65;128679;1254;113536;-61
2024/03/24 08:43:45;;;;;;;3.20;2.30;;;;;;;10.97;63.56;99137.55;128539;1254;113601;-61
2024/03/24 08:46:55;;;;;;;2.80;2.00;;;;;;;11.27;64.08;99129.99;128729;1264;128860;-61
2024/03/24 08:50:05;;;;;;;2.50;1.40;;;;;;;11.46;62.89;99123.20;128614;1256;114472;-61
2024/03/24 08:53:11;;;;;;;4.20;1.70;;;;;;;11.60;62.29;99122.41;128730;1253;113546;-60
2024/03/24 08:56:17;;;;;;;3.60;2.00;;;;;;;11.81;62.23;99120.67;128705;1254;113574;-60
2024/03/24 08:59:23;;;;;;;3.10;1.70;;;;;;;12.18;62.04;99119.05;129015;1257;113905;-60
2024/03/24 09:02:28;;;;;;;4.70;1.80;;;;;;;12.63;61.47;99119.78;129124;1256;128983;-61
2024/03/24 09:05:39;;;;;;;3.80;1.70;;;;;;;13.04;60.43;99116.58;129377;1257;114448;-61
2024/03/24 09:09:10;;;;;;;5.20;2.20;;;;;;;13.10;58.36;99120.12;129323;1253;114570;-61
2024/03/24 09:12:19;;;;;;;3.10;2.10;;;;;;;13.03;58.04;99121.38;129318;1256;113442;-64
2024/03/24 09:24:37;;;;;;;1.90;1.10;;;;;;;13.54;56.64;99115.57;129307;1256;115781;-63
2024/03/24 09:41:25;;;;;;;;;;;;;;;;;;;;;
2024/03/24 09:45:20;;;;;;;;;;;;;;;;;;;;;
2024/03/24 09:53:42;;;;;;;8.50;4.80;;;;;;;13.98;50.35;99083.76;127020;1272;113565;-65
2024/03/24 10:01:52;;;;;;;2.80;1.30;;;;;;;13.36;49.73;99094.39;127059;1277;128558;-65
2024/03/24 10:05:43;;;;;;;2.80;1.10;;;;;;;12.97;49.44;99091.37;126214;1283;114796;-65
2024/03/24 10:14:07;;;;;;;3.50;1.00;;;;;;;13.06;49.64;99076.70;126248;1280;114843;-65
2024/03/24 10:18:29;;;;;;;;;;;;;;;;;;;;;
2024/03/24 10:26:36;;;;;;;;;;;;;;;;;;;;;
2024/03/24 10:30:16;;;;;;;;;;;;;;;;;;;;;
2024/03/24 10:33:25;;;;;;;1.80;0.90;;;;;;;13.97;48.22;99050.86;127547;1267;113619;-64
2024/03/24 10:36:37;;;;;;;2.80;1.10;;;;;;;14.06;48.04;99048.67;127806;1262;113756;-63
2024/03/24 10:39:52;;;;;;;3.10;0.90;;;;;;;14.11;47.69;99042.25;127742;1254;127755;-65
2024/03/24 10:43:12;;;;;;;1.30;0.80;;;;;;;14.18;47.72;99042.98;128581;1254;114805;-65
2024/03/24 10:51:12;;;;;;;2.60;1.50;;;;;;;13.99;46.49;99034.13;128629;1257;113575;-65
2024/03/24 10:59:05;;;;;;;2.40;1.10;;;;;;;13.65;46.69;99032.48;128665;1257;129899;-65
2024/03/24 11:02:28;;;;;;;5.10;1.30;;;;;;;13.48;46.94;99029.94;128708;1253;114863;-64
2024/03/24 11:10:33;;;;;;;4.40;1.20;;;;;;;13.27;47.75;99025.34;128726;1256;114725;-64
2024/03/24 11:18:43;;;;;;;;;;;;;;;;;;;;;
2024/03/24 11:22:39;;;;;;;2.80;1.60;;;;;;;13.59;47.46;99009.46;128753;1254;114890;-64
2024/03/24 11:25:39;;;;;;;;;;;;;;;;;;;;;
2024/03/24 11:29:08;;;;;;;4.40;2.40;;;;;;;13.77;47.18;99002.55;128748;1254;113499;-64
2024/03/24 11:37:15;;;;;;;2.80;1.60;;;;;;;13.75;46.39;98993.59;127805;1265;128107;-64
2024/03/24 11:45:26;;;;;;;4.60;2.00;;;;;;;13.88;46.38;98997.94;127342;1271;114076;-63
2024/03/24 11:49:31;;;;;;;3.40;1.80;;;;;;;14.05;45.89;98994.55;127484;1267;113655;-65
2024/03/24 11:57:56;;;;;;;4.00;1.60;;;;;;;14.18;45.21;98990.73;127504;1271;128940;-64
2024/03/24 12:06:10;;;;;;;;;;;;;;;;;;;;;
2024/03/24 12:10:22;;;;;;;3.00;2.00;;;;;;;14.35;44.86;98978.71;126875;1280;113676;-64
2024/03/24 12:22:19;;;;;;;;;;;;;;;;;;;;;
2024/03/24 12:25:56;;;;;;;;;;;;;;;;;;;;;
2024/03/24 12:30:02;;;;;;;4.40;1.20;;;;;;;13.99;44.29;98960.59;126970;1272;113743;-65
2024/03/24 12:33:53;;;;;;;;;;;;;;;;;;;;;
2024/03/24 12:38:05;;;;;;;;;;;;;;;;;;;;;
2024/03/24 12:41:42;;;;;;;;;;;;;;;;;;;;;
2024/03/24 12:45:27;;;;;;;2.30;1.40;;;;;;;13.69;44.34;98941.02;127246;1273;113824;-64
2024/03/24 12:53:27;;;;;;;2.20;1.10;;;;;;;13.55;44.43;98934.14;127901;1265;113720;-64
2024/03/24 13:05:19;;;;;;;3.50;1.20;;;;;;;13.17;44.59;98918.36;127950;1266;113665;-64
2024/03/24 13:13:16;;;;;;;;;;;;;;;;;;;;;
2024/03/24 13:17:10;;;;;;;2.50;1.60;;;;;;;13.35;43.63;98905.77;127733;1280;128079;-64
2024/03/24 13:25:27;;;;;;;3.70;1.90;;;;;;;13.38;43.47;98904.33;127855;1267;113719;-65
2024/03/24 13:29:22;;;;;;;2.30;1.00;;;;;;;13.33;43.16;98897.86;127853;1263;113786;-66
2024/03/24 13:33:02;;;;;;;;;;;;;;;;;;;;;
2024/03/24 13:36:59;;;;;;;2.40;1.20;;;;;;;13.26;42.69;98880.19;127682;1276;128776;-64
2024/03/24 13:40:41;;;;;;;3.10;1.50;;;;;;;13.20;42.82;98883.54;128075;1262;114752;-64
2024/03/24 13:44:02;;;;;;;2.60;1.50;;;;;;;13.11;42.92;98883.42;128004;1258;113736;-64
2024/03/24 13:47:18;;;;;;;4.50;1.50;;;;;;;12.97;43.00;98882.73;128186;1259;113593;-64
2024/03/24 13:50:56;;;;;;;3.50;2.20;;;;;;;12.90;43.08;98877.03;128119;1257;113578;-64
2024/03/24 13:54:20;;;;;;;1.90;1.20;;;;;;;12.86;43.19;98866.44;128146;1262;127820;-64
2024/03/24 13:57:38;;;;;;;;;;;;;;;;;;;;;
2024/03/24 14:00:51;;;;;;;2.90;1.30;;;;;;;12.91;43.15;98861.17;128704;1257;113460;-63
2024/03/24 14:03:57;;;;;;;2.60;1.70;;;;;;;12.93;42.96;98859.05;128696;1253;113540;-64
2024/03/24 14:07:14;;;;;;;2.80;1.30;;;;;;;12.97;43.09;98856.21;128535;1254;113555;-62
2024/03/24 14:10:28;;;;;;;5.00;1.80;;;;;;;13.05;43.21;98849.27;128287;1254;127844;-63
2024/03/24 14:13:58;;;;;;;3.00;1.60;;;;;;;13.05;42.93;98848.73;128583;1257;114749;-63
2024/03/24 14:17:24;;;;;;;2.40;1.00;;;;;;;12.99;42.95;98849.41;128810;1253;113542;-63
2024/03/24 14:20:55;;;;;;;3.70;0.90;;;;;;;13.00;42.87;98851.67;128323;1259;113583;-63
2024/03/24 14:24:21;;;;;;;;;;;;;;;;;;;;;
2024/03/24 14:27:40;;;;;;;2.00;0.90;;;;;;;12.90;42.44;98847.45;128609;1257;128866;-64
2024/03/24 14:30:53;;;;;;;2.60;1.40;;;;;;;12.89;42.43;98844.13;128432;1254;114786;-63
2024/03/24 14:34:14;;;;;;;2.60;1.10;;;;;;;12.88;42.78;98841.19;128636;1256;113555;-64
2024/03/24 14:38:03;;;;;;;5.90;1.90;;;;;;;12.92;42.98;98833.85;128705;1254;113642;-64
2024/03/24 14:41:57;;;;;;;;;;;;;;;;;;;;;
2024/03/24 14:45:21;;;;;;;2.90;1.40;;;;;;;12.99;43.16;98823.66;128706;1260;127772;-63
2024/03/24 14:48:29;;;;;;;2.00;1.20;;;;;;;13.00;43.34;98830.02;128707;1259;114713;-62
2024/03/24 14:51:33;;;;;;;2.40;1.40;;;;;;;13.01;43.31;98830.61;128537;1262;113616;-63
2024/03/24 14:54:42;;;;;;;2.60;1.10;;;;;;;13.07;43.37;98831.20;128539;1254;113637;-63
2024/03/24 14:57:51;;;;;;;3.90;1.40;;;;;;;13.11;43.49;98825.85;128858;1255;113537;-64
2024/03/24 15:00:59;;;;;;;3.20;1.50;;;;;;;13.03;43.05;98825.48;128911;1254;128945;-62
2024/03/24 15:04:05;;;;;;;2.60;1.20;;;;;;;12.89;43.04;98825.36;128992;1257;114709;-63
2024/03/24 15:07:18;;;;;;;3.60;1.80;;;;;;;12.72;43.28;98831.23;128784;1256;113590;-64
2024/03/24 15:10:25;;;;;;;2.80;1.20;;;;;;;12.56;43.43;98838.24;128836;1254;113494;-65
2024/03/24 15:13:31;;;;;;;3.20;1.50;;;;;;;12.35;43.77;98843.48;128488;1254;113665;-63
2024/03/24 15:16:37;;;;;;;2.90;1.40;;;;;;;12.13;43.85;98844.52;128708;1254;128663;-63
2024/03/24 15:19:43;;;;;;;2.20;1.70;;;;;;;11.98;44.50;98842.86;128731;1258;115973;-63
2024/03/24 15:22:54;;;;;;;3.70;2.30;;;;;;;11.93;45.06;98833.36;128963;1254;113870;-62
2024/03/24 15:26:02;;;;;;;3.10;1.60;;;;;;;11.97;46.05;98831.63;128759;1258;113474;-62
2024/03/24 15:29:08;;;;;;;4.50;2.20;;;;;;;11.90;46.16;98827.33;128857;1257;113532;-62
2024/03/24 15:32:17;;;;;;;3.00;2.20;;;;;;;11.78;46.32;98826.86;128755;1254;130000;-65
2024/03/24 15:35:22;;;;;;;;;;;;;;;11.64;46.57;98822.19;128788;1256;114903;-64
2024/03/24 15:38:27;;;;;;;4.40;2.40;;;;;;;11.51;46.41;98824.28;128597;1257;113508;-64
2024/03/24 15:41:35;;;;;;;6.30;4.00;;;;;;;11.40;46.87;98823.13;128907;1257;113807;-64
2024/03/24 15:44:42;;;;;;;4.80;2.60;;;;;;;11.27;47.31;98822.86;128496;1253;113631;-64
2024/03/24 15:47:54;;;;;;;4.30;3.20;;;;;;;11.14;47.31;98827.64;128719;1257;128620;-63
2024/03/24 15:50:58;;;;;;;7.20;4.40;;;;;;;11.00;47.23;98822.42;128930;1254;114720;-62
2024/03/24 15:54:02;;;;;;;8.10;5.60;;;;;;;10.84;47.12;98823.77;129041;1257;113484;-62
2024/03/24 15:57:24;;;;;;;5.50;3.80;;;;;;;10.70;47.12;98824.48;128947;1253;113513;-63
2024/03/24 16:00:53;;;;;;;4.20;2.60;;;;;;;10.55;47.50;98817.73;128830;1254;113530;-62
2024/03/24 16:04:11;;;;;;;3.90;2.70;;;;;;;10.42;47.41;98826.45;128899;1254;128780;-62
2024/03/24 16:07:57;;;;;;;6.60;4.60;;;;;;;10.26;47.75;98825.63;128622;1261;114802;-63
2024/03/24 16:11:17;;;;;;;8.20;5.20;;;;;;;10.08;47.82;98825.85;128849;1254;113421;-63
2024/03/24 16:14:38;;;;;;;11.30;6.80;;;;;;;9.94;48.42;98830.44;128897;1254;114897;-62
2024/03/24 16:17:44;;;;;;;15.30;10.60;;;;;;;9.82;48.53;98827.52;128569;1259;113833;-64
2024/03/24 16:21:05;;;;;;;9.10;6.20;;;;;;;9.74;48.92;98828.78;128725;1259;128826;-64
2024/03/24 16:24:14;;;;;;;7.80;5.30;;;;;;;9.67;49.43;98829.39;128750;1257;114719;-63
2024/03/24 16:27:20;;;;;;;6.80;4.60;;;;;;;9.62;49.64;98828.86;128956;1258;113576;-63
2024/03/24 16:30:38;;;;;;;9.80;6.10;;;;;;;9.58;49.60;98823.06;128767;1253;113505;-64
2024/03/24 16:33:48;;;;;;;30.40;12.00;;;;;;;9.55;49.83;98822.95;128726;1258;114286;-63
2024/03/24 16:36:58;;;;;;;71.90;32.10;;;;;;;9.50;50.06;98822.71;128859;1257;128462;-63
2024/03/24 16:40:04;;;;;;;24.80;12.40;;;;;;;9.47;50.28;98825.42;128885;1257;114719;-63
2024/03/24 16:43:11;;;;;;;11.80;6.60;;;;;;;9.42;50.28;98827.75;128710;1253;115557;-63
2024/03/24 16:46:16;;;;;;;5.00;3.30;;;;;;;9.37;50.38;98832.85;128992;1253;113532;-63
2024/03/24 16:49:27;;;;;;;4.30;2.80;;;;;;;9.33;50.74;98830.55;128841;1254;113416;-64
2024/03/24 16:52:34;;;;;;;3.70;2.40;;;;;;;9.28;51.30;98829.21;128875;1254;128329;-63
2024/03/24 16:55:43;;;;;;;4.50;2.80;;;;;;;9.23;51.01;98828.84;128744;1254;114722;-64
2024/03/24 16:58:55;;;;;;;;;;;;;;;9.19;51.02;98832.20;128898;1254;113432;-61
2024/03/24 17:02:02;;;;;;;5.60;3.10;;;;;;;9.12;51.05;98826.57;129010;1258;113750;-62
2024/03/24 17:05:15;;;;;;;5.80;3.30;;;;;;;9.08;51.21;98827.01;128668;1259;114298;-63
2024/03/24 17:08:20;;;;;;;6.20;3.00;;;;;;;9.04;51.08;98828.90;128830;1256;128047;-63
2024/03/24 17:11:30;;;;;;;3.60;2.10;;;;;;;8.98;51.14;98831.40;128727;1260;114790;-63
2024/03/24 17:14:34;;;;;;;4.20;1.90;;;;;;;8.92;51.18;98835.73;128896;1256;114691;-62